createdAt,value
2023-01-09T00:00:21.564Z,4.20
2023-01-09T00:02:50.130Z,4.20
2023-01-09T00:05:19.801Z,4.20
2023-01-09T00:07:48.349Z,4.20
2023-01-09T00:10:36.773Z,4.20
2023-01-09T00:13:05.227Z,4.20
2023-01-09T00:15:33.627Z,4.20
2023-01-09T00:18:02.136Z,4.20
2023-01-09T00:20:30.670Z,4.20
2023-01-09T00:22:59.096Z,4.20
2023-01-09T00:25:27.592Z,4.20
2023-01-09T00:27:57.464Z,4.20
2023-01-09T00:30:26.292Z,4.20
2023-01-09T00:32:55.738Z,4.10
2023-01-09T00:35:26.334Z,4.00
2023-01-09T00:37:54.976Z,4.00
2023-01-09T00:40:23.710Z,4.00
2023-01-09T00:42:57.337Z,4.00
2023-01-09T00:45:30.773Z,4.00
2023-01-09T00:48:03.471Z,4.10
2023-01-09T00:50:33.950Z,4.10
2023-01-09T00:53:06.908Z,4.10
2023-01-09T00:55:36.758Z,4.10
2023-01-09T00:58:07.516Z,4.10
2023-01-09T01:00:36.076Z,4.10
2023-01-09T01:03:04.767Z,4.10
2023-01-09T01:06:05.934Z,4.10
2023-01-09T01:08:34.516Z,4.10
2023-01-09T01:11:06.656Z,4.10
2023-01-09T01:13:36.606Z,4.10
2023-01-09T01:16:06.519Z,4.10
2023-01-09T01:18:35.106Z,4.10
2023-01-09T01:21:07.807Z,4.10
2023-01-09T01:23:36.876Z,4.10
2023-01-09T01:26:06.997Z,4.10
2023-01-09T01:28:36.934Z,4.10
2023-01-09T01:31:06.144Z,4.10
2023-01-09T01:33:35.597Z,4.00
2023-01-09T01:36:05.799Z,4.00
2023-01-09T01:38:34.988Z,4.10
2023-01-09T01:41:04.006Z,4.10
2023-01-09T01:43:52.518Z,4.10
2023-01-09T01:46:39.887Z,4.10
2023-01-09T01:49:16.356Z,4.10
2023-01-09T01:51:51.823Z,4.20
2023-01-09T01:54:27.536Z,4.20
2023-01-09T01:56:59.763Z,4.20
2023-01-09T01:59:34.990Z,4.30
2023-01-09T02:02:04.420Z,4.30
2023-01-09T02:04:35.182Z,4.30
2023-01-09T02:07:22.405Z,4.40
2023-01-09T02:09:51.198Z,4.40
2023-01-09T02:12:23.792Z,4.50
2023-01-09T02:14:58.456Z,4.60
2023-01-09T02:17:43.766Z,4.70
2023-01-09T02:20:39.255Z,4.70
2023-01-09T02:23:44.768Z,4.80
2023-01-09T02:26:44.767Z,4.90
2023-01-09T02:29:57.199Z,5.00
2023-01-09T02:32:43.047Z,5.10
2023-01-09T02:35:34.936Z,5.20
2023-01-09T02:38:09.140Z,5.30
2023-01-09T02:40:42.777Z,5.30
2023-01-09T02:43:12.970Z,5.40
2023-01-09T02:45:41.605Z,5.40
2023-01-09T02:48:12.689Z,5.50
2023-01-09T02:50:45.009Z,5.60
2023-01-09T02:53:34.918Z,5.70
2023-01-09T02:56:30.189Z,5.70
2023-01-09T02:59:18.881Z,5.80
2023-01-09T03:02:06.176Z,5.80
2023-01-09T03:04:46.162Z,5.90
2023-01-09T03:07:23.116Z,5.90
2023-01-09T03:10:17.156Z,6.00
2023-01-09T03:12:48.026Z,6.10
2023-01-09T03:15:19.871Z,6.10
2023-01-09T03:17:50.707Z,6.20
2023-01-09T03:20:26.479Z,6.20
2023-01-09T03:22:56.970Z,6.30
2023-01-09T03:25:26.472Z,6.30
2023-01-09T03:27:58.197Z,6.40
2023-01-09T03:30:28.398Z,6.40
2023-01-09T03:33:09.288Z,6.40
2023-01-09T03:35:39.122Z,6.50
2023-01-09T03:38:08.121Z,6.50
2023-01-09T03:40:36.610Z,6.60
2023-01-09T03:43:05.220Z,6.60
2023-01-09T03:45:33.723Z,6.60
2023-01-09T03:48:02.224Z,6.60
2023-01-09T03:50:30.710Z,6.60
2023-01-09T03:53:00.518Z,6.60
2023-01-09T03:55:28.950Z,6.70
2023-01-09T03:57:57.450Z,6.70
2023-01-09T04:00:26.088Z,6.70
2023-01-09T04:02:54.659Z,6.70
2023-01-09T04:05:23.222Z,6.70
2023-01-09T04:07:51.761Z,6.70
2023-01-09T04:10:21.958Z,6.70
2023-01-09T04:12:50.420Z,6.70
2023-01-09T04:15:19.044Z,6.80
2023-01-09T04:17:47.620Z,6.80
2023-01-09T04:20:16.374Z,6.80
2023-01-09T04:22:44.968Z,6.80
2023-01-09T04:25:13.899Z,6.80
2023-01-09T04:27:43.790Z,6.90
2023-01-09T04:30:13.254Z,6.90
2023-01-09T04:32:42.852Z,6.90
2023-01-09T04:35:12.266Z,6.90
2023-01-09T04:37:40.785Z,6.90
2023-01-09T04:40:12.549Z,6.90
2023-01-09T04:42:41.702Z,6.90
2023-01-09T04:45:15.516Z,6.90
2023-01-09T04:47:44.241Z,7.00
2023-01-09T04:50:13.872Z,6.90
2023-01-09T04:52:42.366Z,6.90
2023-01-09T04:55:11.271Z,6.90
2023-01-09T04:57:39.678Z,7.00
2023-01-09T05:00:15.419Z,7.00
2023-01-09T05:02:45.339Z,7.00
2023-01-09T05:05:13.913Z,6.90
2023-01-09T05:07:42.499Z,7.00
2023-01-09T05:10:12.578Z,7.00
2023-01-09T05:12:41.119Z,7.00
2023-01-09T05:15:21.838Z,7.00
2023-01-09T05:17:51.978Z,7.00
2023-01-09T05:20:20.529Z,7.00
2023-01-09T05:22:49.091Z,6.90
2023-01-09T05:25:17.718Z,6.90
2023-01-09T05:27:46.617Z,6.90
2023-01-09T05:30:17.979Z,6.90
2023-01-09T05:32:46.860Z,6.90
2023-01-09T05:35:16.902Z,6.90
2023-01-09T05:37:46.488Z,6.90
2023-01-09T05:40:15.277Z,6.80
2023-01-09T05:42:44.698Z,6.80
2023-01-09T05:45:13.601Z,6.80
2023-01-09T05:47:42.185Z,6.70
2023-01-09T05:50:11.980Z,6.70
2023-01-09T05:52:42.342Z,6.70
2023-01-09T05:55:12.509Z,6.70
2023-01-09T05:57:40.973Z,6.70
2023-01-09T06:00:11.178Z,6.80
2023-01-09T06:02:39.872Z,6.80
2023-01-09T06:05:09.971Z,6.70
2023-01-09T06:07:41.058Z,6.70
2023-01-09T06:10:13.264Z,6.70
2023-01-09T06:12:42.860Z,6.70
2023-01-09T06:15:12.411Z,6.70
2023-01-09T06:17:40.847Z,6.60
2023-01-09T06:20:10.750Z,6.70
2023-01-09T06:22:39.268Z,6.60
2023-01-09T06:25:08.688Z,6.60
2023-01-09T06:27:38.702Z,6.60
2023-01-09T06:30:08.578Z,6.60
2023-01-09T06:32:37.090Z,6.60
2023-01-09T06:35:06.135Z,6.60
2023-01-09T06:37:34.754Z,6.50
2023-01-09T06:40:03.320Z,6.40
2023-01-09T06:42:31.842Z,6.40
2023-01-09T06:45:01.747Z,6.50
2023-01-09T06:47:30.249Z,6.40
2023-01-09T06:49:58.869Z,6.30
2023-01-09T06:52:27.267Z,6.20
2023-01-09T06:54:55.753Z,6.10
2023-01-09T06:57:24.307Z,6.00
2023-01-09T07:00:13.579Z,5.90
2023-01-09T07:02:42.100Z,5.90
2023-01-09T07:05:12.170Z,5.80
2023-01-09T07:07:41.239Z,5.80
2023-01-09T07:10:11.617Z,5.70
2023-01-09T07:12:40.047Z,5.70
2023-01-09T07:15:09.456Z,5.70
2023-01-09T07:17:39.365Z,5.70
2023-01-09T07:20:09.420Z,5.70
2023-01-09T07:22:37.857Z,5.60
2023-01-09T07:25:07.422Z,5.50
2023-01-09T07:27:35.849Z,5.40
2023-01-09T07:30:10.108Z,5.30
2023-01-09T07:32:55.174Z,5.20
2023-01-09T07:35:23.711Z,5.10
2023-01-09T07:37:52.195Z,5.10
2023-01-09T07:40:20.920Z,5.00
2023-01-09T07:42:49.409Z,5.00
2023-01-09T07:45:18.152Z,5.00
2023-01-09T07:47:46.678Z,5.00
2023-01-09T07:50:16.832Z,5.00
2023-01-09T07:52:46.703Z,5.00
2023-01-09T07:55:17.656Z,5.00
2023-01-09T07:57:50.024Z,5.00
2023-01-09T08:00:21.289Z,5.00
2023-01-09T08:02:53.455Z,5.00
2023-01-09T08:05:23.868Z,5.00
2023-01-09T08:07:52.416Z,5.00
2023-01-09T08:10:21.349Z,5.00
2023-01-09T08:12:50.550Z,5.10
2023-01-09T08:15:19.528Z,5.10
2023-01-09T08:17:48.618Z,5.10
2023-01-09T08:20:18.530Z,5.20
2023-01-09T08:22:53.671Z,5.20
2023-01-09T08:25:22.449Z,5.20
2023-01-09T08:27:50.923Z,5.30
2023-01-09T08:30:19.951Z,5.30
2023-01-09T08:32:50.997Z,5.40
2023-01-09T08:35:20.130Z,5.50
2023-01-09T08:37:50.488Z,5.60
2023-01-09T08:40:19.756Z,5.70
2023-01-09T08:43:05.645Z,5.80
2023-01-09T08:45:52.109Z,5.80
2023-01-09T08:48:20.625Z,5.90
2023-01-09T08:50:49.041Z,6.00
2023-01-09T08:53:18.941Z,6.00
2023-01-09T08:56:06.133Z,6.10
2023-01-09T08:58:35.112Z,6.10
2023-01-09T09:01:07.261Z,6.20
2023-01-09T09:03:35.759Z,6.20
2023-01-09T09:06:04.283Z,6.30
2023-01-09T09:08:34.129Z,6.30
2023-01-09T09:11:02.589Z,6.30
2023-01-09T09:13:30.984Z,6.40
2023-01-09T09:15:59.557Z,6.50
2023-01-09T09:18:28.129Z,6.70
2023-01-09T09:20:56.577Z,7.00
2023-01-09T09:23:25.114Z,7.40
2023-01-09T09:25:54.989Z,7.50
2023-01-09T09:28:23.499Z,7.70
2023-01-09T09:30:52.028Z,7.90
2023-01-09T09:33:20.889Z,7.80
2023-01-09T09:35:49.392Z,7.60
2023-01-09T09:38:17.992Z,7.50
2023-01-09T09:41:49.990Z,7.30
2023-01-09T09:44:53.682Z,7.20
2023-01-09T09:47:47.951Z,7.10
2023-01-09T09:50:29.091Z,7.10
2023-01-09T09:53:04.108Z,7.00
2023-01-09T09:55:34.972Z,7.00
2023-01-09T09:58:08.608Z,7.00
2023-01-09T10:00:37.426Z,6.90
2023-01-09T10:03:09.638Z,6.80
2023-01-09T10:05:42.270Z,6.80
2023-01-09T10:08:25.430Z,6.70
2023-01-09T10:10:56.571Z,6.60
2023-01-09T10:13:44.581Z,6.50
2023-01-09T10:16:25.687Z,6.50
2023-01-09T10:19:07.730Z,6.50
2023-01-09T10:21:47.071Z,6.50
2023-01-09T10:24:43.633Z,6.50
2023-01-09T10:27:22.013Z,6.60
2023-01-09T10:30:04.532Z,6.50
2023-01-09T10:32:48.713Z,6.50
2023-01-09T10:35:55.084Z,6.50
2023-01-09T10:38:28.431Z,6.50
2023-01-09T10:41:03.229Z,6.50
2023-01-09T10:43:38.840Z,6.50
2023-01-09T10:46:14.229Z,6.50
2023-01-09T10:48:57.521Z,6.60
2023-01-09T10:51:29.096Z,6.60
2023-01-09T10:53:58.024Z,6.60
2023-01-09T10:56:30.209Z,6.60
2023-01-09T10:58:58.718Z,6.70
2023-01-09T11:01:31.001Z,6.60
2023-01-09T11:04:01.906Z,6.70
2023-01-09T11:06:38.781Z,6.60
2023-01-09T11:09:15.258Z,6.70
2023-01-09T11:11:44.548Z,6.70
2023-01-09T11:14:18.363Z,6.70
2023-01-09T11:16:56.516Z,6.70
2023-01-09T11:19:26.000Z,6.80
2023-01-09T11:22:08.873Z,6.70
2023-01-09T11:24:37.791Z,6.80
2023-01-09T11:27:24.762Z,6.90
2023-01-09T11:30:28.026Z,6.90
2023-01-09T11:32:59.902Z,7.00
2023-01-09T11:35:34.399Z,7.00
2023-01-09T11:38:13.860Z,7.20
2023-01-09T11:40:50.963Z,7.30
2023-01-09T11:43:25.639Z,7.50
2023-01-09T11:46:00.996Z,7.70
2023-01-09T11:48:37.929Z,7.70
2023-01-09T11:51:20.481Z,7.80
2023-01-09T11:54:09.133Z,7.90
2023-01-09T11:56:38.409Z,7.90
2023-01-09T11:59:12.350Z,7.90
2023-01-09T12:02:20.122Z,7.80
2023-01-09T12:04:55.634Z,7.80
2023-01-09T12:07:51.849Z,7.80
2023-01-09T12:10:36.489Z,7.90
2023-01-09T12:13:36.400Z,7.90
2023-01-09T12:16:13.279Z,8.00
2023-01-09T12:19:02.944Z,7.90
2023-01-09T12:21:36.571Z,7.90
2023-01-09T12:24:40.515Z,7.90
2023-01-09T12:27:25.701Z,7.90
2023-01-09T12:30:16.530Z,7.90
2023-01-09T12:33:00.003Z,7.90
2023-01-09T12:35:41.951Z,7.80
2023-01-09T12:38:27.277Z,7.90
2023-01-09T12:41:28.249Z,7.90
2023-01-09T12:44:10.549Z,7.90
2023-01-09T12:46:45.675Z,8.00
2023-01-09T12:49:31.040Z,8.00
2023-01-09T12:52:07.294Z,8.00
2023-01-09T12:54:44.189Z,8.00
2023-01-09T12:57:23.122Z,8.00
2023-01-09T12:59:55.354Z,8.00
2023-01-09T13:02:32.721Z,8.00
2023-01-09T13:05:08.130Z,8.00
2023-01-09T13:07:43.261Z,8.00
2023-01-09T13:10:22.759Z,7.90
2023-01-09T13:12:53.340Z,7.90
2023-01-09T13:15:29.392Z,7.90
2023-01-09T13:18:08.862Z,8.00
2023-01-09T13:20:43.644Z,8.00
2023-01-09T13:23:18.750Z,8.00
2023-01-09T13:25:50.248Z,8.00
2023-01-09T13:28:22.463Z,8.00
2023-01-09T13:31:08.917Z,8.00
2023-01-09T13:33:40.119Z,8.00
2023-01-09T13:36:08.849Z,8.10
2023-01-09T13:38:40.730Z,8.10
2023-01-09T13:41:31.628Z,8.10
2023-01-09T13:44:02.605Z,8.00
2023-01-09T13:46:36.849Z,8.10
2023-01-09T13:49:05.814Z,8.00
2023-01-09T13:52:00.123Z,8.00
2023-01-09T13:55:20.297Z,8.00
2023-01-09T13:58:23.768Z,8.10
2023-01-09T14:00:56.808Z,8.10
2023-01-09T14:03:28.416Z,8.10
2023-01-09T14:06:20.673Z,8.10
2023-01-09T14:08:51.817Z,8.00
2023-01-09T14:11:23.329Z,8.10
2023-01-09T14:14:07.290Z,8.00
2023-01-09T14:16:39.015Z,8.00
2023-01-09T14:19:22.569Z,8.00
2023-01-09T14:21:54.688Z,8.00
2023-01-09T14:24:28.181Z,8.00
2023-01-09T14:26:58.549Z,8.00
2023-01-09T14:29:45.959Z,7.90
2023-01-09T14:32:44.013Z,7.90
2023-01-09T14:35:22.483Z,7.90
2023-01-09T14:38:03.692Z,7.90
2023-01-09T14:40:33.327Z,7.90
2023-01-09T14:43:22.440Z,8.00
2023-01-09T14:45:53.258Z,7.90
2023-01-09T14:48:24.626Z,7.90
2023-01-09T14:50:56.005Z,7.80
2023-01-09T14:53:27.739Z,7.80
2023-01-09T14:55:58.249Z,7.80
2023-01-09T14:58:28.334Z,7.80
2023-01-09T15:01:02.738Z,7.70
2023-01-09T15:03:42.134Z,7.60
2023-01-09T15:06:16.758Z,7.60
2023-01-09T15:08:46.710Z,7.70
2023-01-09T15:11:18.373Z,7.70
2023-01-09T15:13:52.978Z,7.70
2023-01-09T15:16:28.421Z,7.70
2023-01-09T15:19:03.935Z,7.70
2023-01-09T15:21:35.035Z,7.70
2023-01-09T15:24:27.215Z,7.70
2023-01-09T15:27:03.929Z,7.70
2023-01-09T15:29:38.873Z,7.70
2023-01-09T15:32:13.593Z,7.70
2023-01-09T15:34:45.541Z,7.80
2023-01-09T15:37:38.682Z,7.80
2023-01-09T15:40:21.937Z,7.80
2023-01-09T15:42:58.543Z,7.70
2023-01-09T15:45:38.652Z,7.60
2023-01-09T15:48:27.168Z,7.60
2023-01-09T15:51:01.790Z,7.60
2023-01-09T15:53:44.362Z,7.60
2023-01-09T15:56:20.869Z,7.60
2023-01-09T15:58:56.607Z,7.60
2023-01-09T16:01:31.333Z,7.60
2023-01-09T16:04:08.305Z,7.60
2023-01-09T16:06:49.681Z,7.60
2023-01-09T16:09:24.979Z,7.60
2023-01-09T16:12:01.326Z,7.60
2023-01-09T16:14:39.149Z,7.50
2023-01-09T16:17:18.102Z,7.60
2023-01-09T16:19:54.174Z,7.60
2023-01-09T16:22:26.994Z,7.60
2023-01-09T16:25:02.019Z,7.60
2023-01-09T16:27:41.749Z,7.60
2023-01-09T16:30:27.009Z,7.60
2023-01-09T16:32:58.065Z,7.70
2023-01-09T16:35:31.610Z,7.70
2023-01-09T16:38:01.607Z,7.70
2023-01-09T16:40:32.327Z,7.70
2023-01-09T16:43:01.787Z,7.70
2023-01-09T16:45:36.945Z,7.60
2023-01-09T16:48:26.909Z,7.60
2023-01-09T16:51:00.769Z,7.60
2023-01-09T16:53:32.062Z,7.60
2023-01-09T16:56:01.022Z,7.60
2023-01-09T16:58:37.261Z,7.60
2023-01-09T17:01:18.956Z,7.60
2023-01-09T17:03:52.439Z,7.60
2023-01-09T17:06:42.468Z,7.50
2023-01-09T17:09:30.027Z,7.50
2023-01-09T17:12:04.424Z,7.50
2023-01-09T17:14:33.948Z,7.50
2023-01-09T17:17:05.805Z,7.60
2023-01-09T17:19:40.382Z,7.60
2023-01-09T17:22:13.960Z,7.60
2023-01-09T17:25:03.404Z,7.60
2023-01-09T17:27:58.618Z,7.60
2023-01-09T17:30:33.611Z,7.50
2023-01-09T17:33:08.148Z,7.40
2023-01-09T17:35:36.879Z,7.30
2023-01-09T17:38:06.778Z,7.40
2023-01-09T17:40:38.606Z,7.40
2023-01-09T17:43:09.878Z,7.40
2023-01-09T17:45:43.045Z,7.40
2023-01-09T17:48:17.580Z,7.40
2023-01-09T17:50:51.619Z,7.40
2023-01-09T17:53:25.151Z,7.40
2023-01-09T17:55:54.999Z,7.40
2023-01-09T17:58:30.248Z,7.40
2023-01-09T18:00:59.073Z,7.40
2023-01-09T18:03:36.968Z,7.40
2023-01-09T18:06:09.699Z,7.50
2023-01-09T18:08:43.128Z,7.50
2023-01-09T18:11:26.783Z,7.40
2023-01-09T18:13:56.510Z,7.50
2023-01-09T18:16:30.011Z,7.40
2023-01-09T18:19:00.277Z,7.40
2023-01-09T18:21:33.103Z,7.40
2023-01-09T18:24:07.880Z,7.40
2023-01-09T18:26:39.135Z,7.50
2023-01-09T18:29:08.017Z,7.50
2023-01-09T18:31:41.408Z,7.50
2023-01-09T18:37:06.603Z,7.50
2023-01-09T18:39:44.839Z,7.50
2023-01-09T18:42:15.911Z,7.50
2023-01-09T18:44:44.778Z,7.50
2023-01-09T18:47:27.798Z,7.60
2023-01-09T18:49:56.654Z,7.60
2023-01-09T18:52:33.568Z,7.60
2023-01-09T18:55:16.406Z,7.60
2023-01-09T18:58:07.685Z,7.50
2023-01-09T19:00:54.251Z,7.60
2023-01-09T19:03:34.372Z,7.50
2023-01-09T19:06:09.154Z,7.60
2023-01-09T19:08:45.088Z,7.60
2023-01-09T19:14:05.082Z,7.50
2023-01-09T19:16:42.789Z,7.50
2023-01-09T19:19:29.637Z,7.50
2023-01-09T19:22:22.616Z,7.50
2023-01-09T19:25:12.157Z,7.50
2023-01-09T19:28:00.710Z,7.50
2023-01-09T19:30:36.613Z,7.50
2023-01-09T19:33:10.342Z,7.50
2023-01-09T19:35:55.447Z,7.40
2023-01-09T19:38:26.869Z,7.50
2023-01-09T19:41:19.723Z,7.50
2023-01-09T19:44:04.647Z,7.60
2023-01-09T19:46:39.409Z,7.50
2023-01-09T19:49:17.339Z,7.50
2023-01-09T19:51:46.959Z,7.60
2023-01-09T19:54:26.178Z,7.60
2023-01-09T19:57:09.619Z,7.60
2023-01-09T20:00:43.685Z,7.60
2023-01-09T20:03:39.687Z,7.50
2023-01-09T20:06:18.821Z,7.50
2023-01-09T20:08:58.715Z,7.50
2023-01-09T20:11:36.995Z,7.50
2023-01-09T20:14:38.938Z,7.50
2023-01-09T20:17:17.974Z,7.50
2023-01-09T20:19:54.228Z,7.50
2023-01-09T20:22:29.382Z,7.50
2023-01-09T20:25:03.336Z,7.60
2023-01-09T20:27:40.244Z,7.50
2023-01-09T20:30:16.153Z,7.50
2023-01-09T20:33:14.349Z,7.50
2023-01-09T20:36:07.313Z,7.50
2023-01-09T20:38:38.921Z,7.50
2023-01-09T20:41:23.114Z,7.40
2023-01-09T20:43:55.479Z,7.40
2023-01-09T20:46:29.858Z,7.40
2023-01-09T20:49:05.165Z,7.40
2023-01-09T20:51:56.701Z,7.40
2023-01-09T20:54:27.867Z,7.50
2023-01-09T20:57:01.152Z,7.50
2023-01-09T20:59:32.287Z,7.50
2023-01-09T21:02:06.473Z,7.50
2023-01-09T21:04:37.171Z,7.50
2023-01-09T21:07:13.953Z,7.50
2023-01-09T21:09:46.704Z,7.50
2023-01-09T21:12:36.349Z,7.50
2023-01-09T21:15:15.269Z,7.50
2023-01-09T21:17:47.218Z,7.50
2023-01-09T21:20:22.279Z,7.50
2023-01-09T21:22:52.401Z,7.50
2023-01-09T21:25:20.831Z,7.50
2023-01-09T21:27:50.528Z,7.50
2023-01-09T21:30:18.902Z,7.50
2023-01-09T21:32:47.485Z,7.50
2023-01-09T21:35:16.048Z,7.40
2023-01-09T21:37:44.598Z,7.40
2023-01-09T21:40:16.839Z,7.30
2023-01-09T21:43:02.598Z,7.30
2023-01-09T21:45:48.776Z,7.30
2023-01-09T21:48:17.297Z,7.30
2023-01-09T21:50:45.708Z,7.30
2023-01-09T21:53:24.280Z,7.30
2023-01-09T21:55:55.267Z,7.20
2023-01-09T21:58:23.899Z,7.20
2023-01-09T22:01:00.640Z,7.20
2023-01-09T22:03:29.207Z,7.20
2023-01-09T22:05:57.637Z,7.20
2023-01-09T22:08:26.075Z,7.10
2023-01-09T22:11:00.271Z,7.00
2023-01-09T22:13:32.309Z,7.00
2023-01-09T22:16:04.505Z,6.90
2023-01-09T22:18:34.128Z,6.90
2023-01-09T22:21:02.880Z,7.00
2023-01-09T22:23:31.575Z,6.90
2023-01-09T22:26:07.502Z,6.90
2023-01-09T22:28:35.955Z,6.90
2023-01-09T22:31:04.419Z,6.90
2023-01-09T22:33:33.006Z,6.90
2023-01-09T22:36:06.824Z,6.90
2023-01-09T22:38:35.439Z,6.90
2023-01-09T22:41:05.642Z,6.90
2023-01-09T22:43:34.134Z,6.90
2023-01-09T22:46:03.262Z,6.90
2023-01-09T22:48:33.910Z,6.90
2023-01-09T22:51:02.450Z,6.90
2023-01-09T22:53:31.278Z,6.90
2023-01-09T22:56:00.812Z,6.90
2023-01-09T22:58:31.910Z,6.90
2023-01-09T23:01:05.790Z,7.00
2023-01-09T23:03:34.390Z,7.00
2023-01-09T23:06:03.417Z,7.00
2023-01-09T23:08:32.746Z,7.10
2023-01-09T23:11:02.128Z,7.10
2023-01-09T23:13:32.260Z,7.20
2023-01-09T23:16:02.340Z,7.10
2023-01-09T23:18:31.024Z,7.10
2023-01-09T23:21:02.017Z,7.10
2023-01-09T23:23:32.321Z,7.00
2023-01-09T23:26:03.592Z,7.00
2023-01-09T23:28:33.505Z,7.00
2023-01-09T23:31:01.910Z,6.90
2023-01-09T23:33:30.364Z,6.90
2023-01-09T23:36:17.309Z,6.90
2023-01-09T23:38:46.472Z,6.80
2023-01-09T23:41:14.900Z,6.80
2023-01-09T23:43:44.081Z,6.70
2023-01-09T23:46:12.793Z,6.70
2023-01-09T23:48:41.473Z,6.60
2023-01-09T23:51:09.971Z,6.60
2023-01-09T23:53:38.498Z,6.60
2023-01-09T23:56:07.108Z,6.60
2023-01-09T23:58:35.791Z,6.50
